Km Tokyo — 3EWA4 — position and weather

sailwx.info

Track history (hours):
 
Tides and Currents Weather Stations Pressure Air Temp Water Temp Dewpoint Dewpoint Depression Visibility Wind Speed Wind Dir Waves Ship Positions

Km Tokyo

Last reported at 2018-Jun-19 15:50 UTC. Time now 2018-Jun-23 00:55 UTC.
Position N 38°41' E 120°57'.

Length 229 m; draft 14.6 m.

Type: Cargo ship. MMSI: 355623000.

Date/timePositionNaut miles runAvg speedWind from/ knotsBaromVisibWave heightAir tempDewpointWater temp
2018-Jun-19 15:50N 38°41' E 120°57'310.1
2018-Jun-19 15:30N 38°38' E 120°59'5 9.9
2018-Jun-19 15:00N 38°34' E 121°03'610.6
2018-Jun-19 14:29N 38°31' E 121°09'510.6
2018-Jun-19 14:00N 38°28' E 121°14'1510.7
2018-Jun-19 12:34N 38°20' E 121°31'311.1
2018-Jun-19 12:18N 38°18' E 121°34'  
2018-Jun-09 23:06N 02°16' E 104°57'412.1
2018-Jun-09 22:44N 02°12' E 104°55'512.8
2018-Jun-09 22:21N 02°07' E 104°53'511.5
2018-Jun-09 21:52N 02°02' E 104°50'512.2
2018-Jun-09 21:29N 01°58' E 104°49'612.3
2018-Jun-09 20:57N 01°52' E 104°47'612.4
2018-Jun-09 20:30N 01°46' E 104°45'612.2
2018-Jun-09 19:59N 01°41' E 104°43'712.8
2018-Jun-09 19:27N 01°35' E 104°40'510.8
2018-Jun-09 19:00N 01°31' E 104°36'612.0
2018-Jun-09 18:30N 01°28' E 104°31'611.4
2018-Jun-09 17:58N 01°24' E 104°27'613.2
2018-Jun-09 17:30N 01°20' E 104°22'611.9
2018-Jun-09 16:59N 01°17' E 104°16'611.8
2018-Jun-09 16:30N 01°17' E 104°11'611.3
2018-Jun-09 15:59N 01°17' E 104°05'  
Track history (hours):
 
Tides and Currents Weather Stations Pressure Air Temp Water Temp Dewpoint Dewpoint Depression Visibility Wind Speed Wind Dir Waves Ship Positions

Km Tokyo

Last reported at 2018-Jun-19 15:50 UTC. Time now 2018-Jun-23 00:55 UTC.
Position N 38°41' E 120°57'.

Length 229 m; draft 14.6 m.

Type: Cargo ship. MMSI: 355623000.

Date/timePositionNaut miles runAvg speedWind from/ knotsBaromVisibWave heightAir tempDewpointWater temp
2018-Jun-19 15:50N 38°41' E 120°57'310.1
2018-Jun-19 15:30N 38°38' E 120°59'5 9.9
2018-Jun-19 15:00N 38°34' E 121°03'610.6
2018-Jun-19 14:29N 38°31' E 121°09'510.6
2018-Jun-19 14:00N 38°28' E 121°14'1510.7
2018-Jun-19 12:34N 38°20' E 121°31'311.1
2018-Jun-19 12:18N 38°18' E 121°34'  
2018-Jun-09 23:06N 02°16' E 104°57'412.1
2018-Jun-09 22:44N 02°12' E 104°55'512.8
2018-Jun-09 22:21N 02°07' E 104°53'511.5
2018-Jun-09 21:52N 02°02' E 104°50'512.2
2018-Jun-09 21:29N 01°58' E 104°49'612.3
2018-Jun-09 20:57N 01°52' E 104°47'612.4
2018-Jun-09 20:30N 01°46' E 104°45'612.2
2018-Jun-09 19:59N 01°41' E 104°43'712.8
2018-Jun-09 19:27N 01°35' E 104°40'510.8
2018-Jun-09 19:00N 01°31' E 104°36'612.0
2018-Jun-09 18:30N 01°28' E 104°31'611.4
2018-Jun-09 17:58N 01°24' E 104°27'613.2
2018-Jun-09 17:30N 01°20' E 104°22'611.9
2018-Jun-09 16:59N 01°17' E 104°16'611.8
2018-Jun-09 16:30N 01°17' E 104°11'611.3
2018-Jun-09 15:59N 01°17' E 104°05'  

Dump ship's entire track history